sensor_id;sensor_type;location;lat;lon;timestamp;P1;durP1;ratioP1;P2;durP2;ratioP2
61527;SDS011;47395;42.032;-8.634;2023-07-31T00:01:39;9.70;;;4.88;;
61527;SDS011;47395;42.032;-8.634;2023-07-31T00:03:40;7.47;;;5.13;;
61527;SDS011;47395;42.032;-8.634;2023-07-31T00:05:41;11.30;;;5.15;;
61527;SDS011;47395;42.032;-8.634;2023-07-31T00:07:42;8.32;;;4.60;;
61527;SDS011;47395;42.032;-8.634;2023-07-31T00:09:43;5.63;;;4.88;;
61527;SDS011;47395;42.032;-8.634;2023-07-31T00:11:44;9.13;;;4.57;;
61527;SDS011;47395;42.032;-8.634;2023-07-31T00:13:46;11.75;;;6.05;;
61527;SDS011;47395;42.032;-8.634;2023-07-31T00:15:46;8.70;;;4.32;;
61527;SDS011;47395;42.032;-8.634;2023-07-31T00:17:47;9.63;;;4.78;;
61527;SDS011;47395;42.032;-8.634;2023-07-31T00:19:48;10.75;;;5.22;;
61527;SDS011;47395;42.032;-8.634;2023-07-31T00:21:50;8.57;;;4.63;;
61527;SDS011;47395;42.032;-8.634;2023-07-31T00:23:52;11.38;;;4.97;;
61527;SDS011;47395;42.032;-8.634;2023-07-31T00:25:53;5.93;;;4.80;;
61527;SDS011;47395;42.032;-8.634;2023-07-31T00:27:54;7.75;;;5.10;;
61527;SDS011;47395;42.032;-8.634;2023-07-31T00:29:54;8.68;;;5.00;;
61527;SDS011;47395;42.032;-8.634;2023-07-31T00:31:55;6.40;;;4.70;;
61527;SDS011;47395;42.032;-8.634;2023-07-31T00:33:56;6.57;;;4.70;;
61527;SDS011;47395;42.032;-8.634;2023-07-31T00:35:57;8.25;;;4.47;;
61527;SDS011;47395;42.032;-8.634;2023-07-31T00:38:00;8.75;;;4.47;;
61527;SDS011;47395;42.032;-8.634;2023-07-31T00:40:00;7.40;;;4.75;;
61527;SDS011;47395;42.032;-8.634;2023-07-31T00:42:04;6.68;;;4.75;;
61527;SDS011;47395;42.032;-8.634;2023-07-31T00:44:05;5.28;;;4.45;;
61527;SDS011;47395;42.032;-8.634;2023-07-31T00:46:06;5.25;;;4.53;;
61527;SDS011;47395;42.032;-8.634;2023-07-31T00:48:07;13.15;;;5.53;;
61527;SDS011;47395;42.032;-8.634;2023-07-31T00:50:09;5.80;;;4.50;;
61527;SDS011;47395;42.032;-8.634;2023-07-31T00:52:12;12.18;;;4.90;;
61527;SDS011;47395;42.032;-8.634;2023-07-31T00:54:13;11.15;;;5.22;;
61527;SDS011;47395;42.032;-8.634;2023-07-31T00:56:14;8.13;;;5.18;;
61527;SDS011;47395;42.032;-8.634;2023-07-31T00:58:16;7.90;;;5.05;;
61527;SDS011;47395;42.032;-8.634;2023-07-31T01:00:17;7.65;;;5.22;;
61527;SDS011;47395;42.032;-8.634;2023-07-31T01:02:18;10.40;;;5.05;;
61527;SDS011;47395;42.032;-8.634;2023-07-31T01:04:20;10.48;;;5.00;;
61527;SDS011;47395;42.032;-8.634;2023-07-31T01:06:30;7.63;;;5.10;;
61527;SDS011;47395;42.032;-8.634;2023-07-31T01:09:01;11.20;;;4.95;;
61527;SDS011;47395;42.032;-8.634;2023-07-31T01:11:14;7.95;;;5.32;;
61527;SDS011;47395;42.032;-8.634;2023-07-31T01:13:17;10.43;;;5.45;;
61527;SDS011;47395;42.032;-8.634;2023-07-31T01:15:19;6.63;;;5.40;;
61527;SDS011;47395;42.032;-8.634;2023-07-31T01:17:21;7.60;;;5.50;;
61527;SDS011;47395;42.032;-8.634;2023-07-31T01:19:23;8.98;;;5.50;;
61527;SDS011;47395;42.032;-8.634;2023-07-31T01:26:23;7.20;;;5.05;;
61527;SDS011;47395;42.032;-8.634;2023-07-31T01:30:50;9.15;;;4.97;;
61527;SDS011;47395;42.032;-8.634;2023-07-31T01:32:51;8.70;;;5.50;;
61527;SDS011;47395;42.032;-8.634;2023-07-31T01:34:55;7.22;;;5.03;;
61527;SDS011;47395;42.032;-8.634;2023-07-31T01:36:58;6.15;;;5.00;;
61527;SDS011;47395;42.032;-8.634;2023-07-31T01:39:01;9.80;;;5.25;;
61527;SDS011;47395;42.032;-8.634;2023-07-31T01:41:03;10.45;;;4.78;;
61527;SDS011;47395;42.032;-8.634;2023-07-31T01:43:05;8.50;;;5.15;;
61527;SDS011;47395;42.032;-8.634;2023-07-31T01:45:06;7.47;;;5.22;;
61527;SDS011;47395;42.032;-8.634;2023-07-31T01:47:07;13.02;;;5.03;;
61527;SDS011;47395;42.032;-8.634;2023-07-31T01:49:09;5.82;;;5.15;;
61527;SDS011;47395;42.032;-8.634;2023-07-31T01:51:10;7.50;;;4.90;;
61527;SDS011;47395;42.032;-8.634;2023-07-31T01:53:12;14.27;;;5.50;;
61527;SDS011;47395;42.032;-8.634;2023-07-31T01:55:13;13.40;;;4.97;;
61527;SDS011;47395;42.032;-8.634;2023-07-31T01:57:14;9.43;;;4.78;;
61527;SDS011;47395;42.032;-8.634;2023-07-31T01:59:15;10.80;;;5.35;;
61527;SDS011;47395;42.032;-8.634;2023-07-31T02:01:16;9.80;;;5.03;;
61527;SDS011;47395;42.032;-8.634;2023-07-31T02:03:17;7.43;;;4.57;;
61527;SDS011;47395;42.032;-8.634;2023-07-31T02:05:18;10.35;;;5.10;;
61527;SDS011;47395;42.032;-8.634;2023-07-31T02:07:19;5.38;;;4.57;;
61527;SDS011;47395;42.032;-8.634;2023-07-31T02:09:19;9.85;;;5.38;;
61527;SDS011;47395;42.032;-8.634;2023-07-31T02:11:20;11.10;;;5.30;;
61527;SDS011;47395;42.032;-8.634;2023-07-31T02:13:23;7.38;;;5.50;;
61527;SDS011;47395;42.032;-8.634;2023-07-31T02:15:24;5.65;;;5.10;;
61527;SDS011;47395;42.032;-8.634;2023-07-31T02:17:26;9.07;;;5.15;;
61527;SDS011;47395;42.032;-8.634;2023-07-31T02:19:26;8.70;;;5.05;;
61527;SDS011;47395;42.032;-8.634;2023-07-31T02:21:27;5.95;;;5.35;;
61527;SDS011;47395;42.032;-8.634;2023-07-31T02:23:28;9.82;;;5.60;;
61527;SDS011;47395;42.032;-8.634;2023-07-31T02:25:30;8.68;;;4.97;;
61527;SDS011;47395;42.032;-8.634;2023-07-31T02:27:30;8.68;;;5.65;;
61527;SDS011;47395;42.032;-8.634;2023-07-31T02:29:31;5.13;;;4.43;;
61527;SDS011;47395;42.032;-8.634;2023-07-31T02:31:32;10.07;;;6.40;;
61527;SDS011;47395;42.032;-8.634;2023-07-31T02:33:33;8.38;;;5.50;;
61527;SDS011;47395;42.032;-8.634;2023-07-31T02:35:34;6.25;;;4.88;;
61527;SDS011;47395;42.032;-8.634;2023-07-31T02:37:35;8.25;;;5.22;;
61527;SDS011;47395;42.032;-8.634;2023-07-31T02:39:37;5.90;;;5.40;;
61527;SDS011;47395;42.032;-8.634;2023-07-31T02:41:39;10.35;;;5.30;;
61527;SDS011;47395;42.032;-8.634;2023-07-31T02:43:40;10.43;;;5.60;;
61527;SDS011;47395;42.032;-8.634;2023-07-31T02:45:41;13.02;;;5.80;;
61527;SDS011;47395;42.032;-8.634;2023-07-31T02:47:43;13.40;;;5.47;;
61527;SDS011;47395;42.032;-8.634;2023-07-31T02:49:45;9.82;;;6.30;;
61527;SDS011;47395;42.032;-8.634;2023-07-31T02:51:45;7.90;;;5.30;;
61527;SDS011;47395;42.032;-8.634;2023-07-31T02:53:47;9.20;;;5.47;;
61527;SDS011;47395;42.032;-8.634;2023-07-31T02:55:48;10.05;;;6.05;;
61527;SDS011;47395;42.032;-8.634;2023-07-31T02:57:49;5.82;;;5.25;;
61527;SDS011;47395;42.032;-8.634;2023-07-31T02:59:52;11.35;;;5.82;;
61527;SDS011;47395;42.032;-8.634;2023-07-31T03:01:53;14.60;;;5.45;;
61527;SDS011;47395;42.032;-8.634;2023-07-31T03:03:54;9.27;;;6.13;;
61527;SDS011;47395;42.032;-8.634;2023-07-31T03:05:55;7.43;;;5.90;;
61527;SDS011;47395;42.032;-8.634;2023-07-31T03:07:56;10.05;;;5.80;;
61527;SDS011;47395;42.032;-8.634;2023-07-31T03:09:57;8.57;;;5.40;;
61527;SDS011;47395;42.032;-8.634;2023-07-31T03:11:58;8.85;;;6.32;;
61527;SDS011;47395;42.032;-8.634;2023-07-31T03:14:00;13.65;;;6.10;;
61527;SDS011;47395;42.032;-8.634;2023-07-31T03:16:01;11.90;;;5.95;;
61527;SDS011;47395;42.032;-8.634;2023-07-31T03:18:03;11.07;;;6.30;;
61527;SDS011;47395;42.032;-8.634;2023-07-31T03:20:04;9.52;;;6.03;;
61527;SDS011;47395;42.032;-8.634;2023-07-31T03:22:05;12.68;;;6.07;;
61527;SDS011;47395;42.032;-8.634;2023-07-31T03:24:06;6.35;;;5.65;;
61527;SDS011;47395;42.032;-8.634;2023-07-31T03:26:07;10.05;;;5.72;;
61527;SDS011;47395;42.032;-8.634;2023-07-31T03:28:08;11.35;;;5.82;;
61527;SDS011;47395;42.032;-8.634;2023-07-31T03:30:09;12.73;;;5.38;;
61527;SDS011;47395;42.032;-8.634;2023-07-31T03:32:10;7.85;;;5.55;;
61527;SDS011;47395;42.032;-8.634;2023-07-31T03:34:11;10.73;;;6.03;;
61527;SDS011;47395;42.032;-8.634;2023-07-31T03:36:12;9.48;;;5.60;;
61527;SDS011;47395;42.032;-8.634;2023-07-31T03:38:13;6.38;;;5.80;;
61527;SDS011;47395;42.032;-8.634;2023-07-31T03:40:14;8.80;;;5.88;;
61527;SDS011;47395;42.032;-8.634;2023-07-31T03:42:16;8.05;;;5.43;;
61527;SDS011;47395;42.032;-8.634;2023-07-31T03:44:17;13.55;;;5.65;;
61527;SDS011;47395;42.032;-8.634;2023-07-31T03:46:18;8.02;;;5.90;;
61527;SDS011;47395;42.032;-8.634;2023-07-31T03:48:20;9.68;;;5.95;;
61527;SDS011;47395;42.032;-8.634;2023-07-31T03:50:22;8.40;;;5.75;;
61527;SDS011;47395;42.032;-8.634;2023-07-31T03:52:23;6.05;;;5.47;;
61527;SDS011;47395;42.032;-8.634;2023-07-31T03:54:25;9.85;;;5.80;;
61527;SDS011;47395;42.032;-8.634;2023-07-31T03:56:26;6.75;;;5.68;;
61527;SDS011;47395;42.032;-8.634;2023-07-31T03:58:26;10.75;;;5.68;;
61527;SDS011;47395;42.032;-8.634;2023-07-31T04:00:27;10.27;;;5.68;;
61527;SDS011;47395;42.032;-8.634;2023-07-31T04:07:24;6.53;;;5.85;;
61527;SDS011;47395;42.032;-8.634;2023-07-31T04:09:25;10.55;;;6.03;;
61527;SDS011;47395;42.032;-8.634;2023-07-31T04:11:27;7.38;;;6.53;;
61527;SDS011;47395;42.032;-8.634;2023-07-31T04:13:29;7.45;;;6.63;;
61527;SDS011;47395;42.032;-8.634;2023-07-31T04:15:30;9.20;;;6.35;;
61527;SDS011;47395;42.032;-8.634;2023-07-31T04:17:31;6.47;;;5.88;;
61527;SDS011;47395;42.032;-8.634;2023-07-31T04:19:32;7.07;;;6.32;;
61527;SDS011;47395;42.032;-8.634;2023-07-31T04:21:32;8.77;;;6.07;;
61527;SDS011;47395;42.032;-8.634;2023-07-31T04:23:33;8.25;;;6.10;;
61527;SDS011;47395;42.032;-8.634;2023-07-31T04:25:34;8.95;;;6.45;;
61527;SDS011;47395;42.032;-8.634;2023-07-31T04:27:35;9.50;;;6.55;;
61527;SDS011;47395;42.032;-8.634;2023-07-31T04:29:36;8.15;;;6.20;;
61527;SDS011;47395;42.032;-8.634;2023-07-31T04:31:37;7.95;;;5.60;;
61527;SDS011;47395;42.032;-8.634;2023-07-31T04:33:40;6.57;;;5.97;;
61527;SDS011;47395;42.032;-8.634;2023-07-31T04:35:41;6.90;;;5.80;;
61527;SDS011;47395;42.032;-8.634;2023-07-31T04:37:42;8.38;;;5.97;;
61527;SDS011;47395;42.032;-8.634;2023-07-31T04:39:43;7.55;;;6.03;;
61527;SDS011;47395;42.032;-8.634;2023-07-31T04:41:43;12.80;;;6.53;;
61527;SDS011;47395;42.032;-8.634;2023-07-31T04:43:44;5.45;;;4.95;;
61527;SDS011;47395;42.032;-8.634;2023-07-31T04:45:45;9.57;;;5.95;;
61527;SDS011;47395;42.032;-8.634;2023-07-31T04:47:48;7.70;;;5.78;;
61527;SDS011;47395;42.032;-8.634;2023-07-31T04:49:48;6.25;;;5.47;;
61527;SDS011;47395;42.032;-8.634;2023-07-31T04:51:50;5.88;;;5.38;;
61527;SDS011;47395;42.032;-8.634;2023-07-31T04:53:50;7.90;;;5.90;;
61527;SDS011;47395;42.032;-8.634;2023-07-31T04:55:51;8.32;;;6.07;;
61527;SDS011;47395;42.032;-8.634;2023-07-31T04:57:53;6.32;;;5.80;;
61527;SDS011;47395;42.032;-8.634;2023-07-31T04:59:54;8.80;;;6.13;;
61527;SDS011;47395;42.032;-8.634;2023-07-31T05:01:55;11.63;;;6.60;;
61527;SDS011;47395;42.032;-8.634;2023-07-31T05:03:57;11.23;;;6.43;;
61527;SDS011;47395;42.032;-8.634;2023-07-31T05:06:00;8.45;;;6.25;;
61527;SDS011;47395;42.032;-8.634;2023-07-31T05:08:01;8.88;;;5.97;;
61527;SDS011;47395;42.032;-8.634;2023-07-31T05:10:03;6.40;;;5.78;;
61527;SDS011;47395;42.032;-8.634;2023-07-31T05:12:05;7.15;;;5.55;;
61527;SDS011;47395;42.032;-8.634;2023-07-31T05:14:06;12.32;;;6.13;;
61527;SDS011;47395;42.032;-8.634;2023-07-31T05:16:07;7.90;;;6.03;;
61527;SDS011;47395;42.032;-8.634;2023-07-31T05:18:11;11.35;;;5.68;;
61527;SDS011;47395;42.032;-8.634;2023-07-31T05:20:13;9.35;;;5.82;;
61527;SDS011;47395;42.032;-8.634;2023-07-31T05:22:19;5.85;;;5.38;;
61527;SDS011;47395;42.032;-8.634;2023-07-31T05:24:31;5.53;;;5.07;;
61527;SDS011;47395;42.032;-8.634;2023-07-31T05:26:32;7.15;;;5.80;;
61527;SDS011;47395;42.032;-8.634;2023-07-31T05:28:34;6.07;;;5.47;;
61527;SDS011;47395;42.032;-8.634;2023-07-31T05:30:35;5.50;;;5.00;;
61527;SDS011;47395;42.032;-8.634;2023-07-31T05:32:36;6.85;;;5.65;;
61527;SDS011;47395;42.032;-8.634;2023-07-31T05:34:37;6.35;;;5.53;;
61527;SDS011;47395;42.032;-8.634;2023-07-31T05:36:39;6.90;;;6.10;;
61527;SDS011;47395;42.032;-8.634;2023-07-31T05:38:40;9.65;;;6.70;;
61527;SDS011;47395;42.032;-8.634;2023-07-31T05:40:42;30.58;;;7.63;;
61527;SDS011;47395;42.032;-8.634;2023-07-31T05:42:43;7.90;;;7.13;;
61527;SDS011;47395;42.032;-8.634;2023-07-31T05:44:44;7.63;;;6.47;;
61527;SDS011;47395;42.032;-8.634;2023-07-31T05:46:47;8.68;;;6.70;;
61527;SDS011;47395;42.032;-8.634;2023-07-31T05:48:48;12.93;;;7.72;;
61527;SDS011;47395;42.032;-8.634;2023-07-31T05:50:48;10.65;;;7.18;;
61527;SDS011;47395;42.032;-8.634;2023-07-31T05:52:49;8.15;;;7.18;;
61527;SDS011;47395;42.032;-8.634;2023-07-31T05:54:50;12.15;;;7.32;;
61527;SDS011;47395;42.032;-8.634;2023-07-31T05:56:51;8.75;;;7.20;;
61527;SDS011;47395;42.032;-8.634;2023-07-31T05:58:52;15.60;;;6.85;;
61527;SDS011;47395;42.032;-8.634;2023-07-31T06:00:53;8.15;;;7.07;;
61527;SDS011;47395;42.032;-8.634;2023-07-31T06:02:54;11.13;;;6.45;;
61527;SDS011;47395;42.032;-8.634;2023-07-31T06:04:55;7.47;;;5.45;;
61527;SDS011;47395;42.032;-8.634;2023-07-31T06:06:57;11.93;;;5.93;;
61527;SDS011;47395;42.032;-8.634;2023-07-31T06:08:58;8.05;;;5.93;;
61527;SDS011;47395;42.032;-8.634;2023-07-31T06:10:59;7.05;;;5.60;;
61527;SDS011;47395;42.032;-8.634;2023-07-31T06:13:00;6.47;;;4.85;;
61527;SDS011;47395;42.032;-8.634;2023-07-31T06:15:02;8.98;;;5.18;;
61527;SDS011;47395;42.032;-8.634;2023-07-31T06:17:03;5.93;;;5.32;;
61527;SDS011;47395;42.032;-8.634;2023-07-31T06:19:05;6.95;;;4.97;;
61527;SDS011;47395;42.032;-8.634;2023-07-31T06:21:07;6.25;;;5.07;;
61527;SDS011;47395;42.032;-8.634;2023-07-31T06:23:08;5.68;;;5.05;;
61527;SDS011;47395;42.032;-8.634;2023-07-31T06:25:09;5.63;;;4.97;;
61527;SDS011;47395;42.032;-8.634;2023-07-31T06:27:10;7.05;;;4.88;;
61527;SDS011;47395;42.032;-8.634;2023-07-31T06:29:11;7.78;;;4.90;;
61527;SDS011;47395;42.032;-8.634;2023-07-31T06:31:12;4.75;;;4.45;;
61527;SDS011;47395;42.032;-8.634;2023-07-31T06:33:13;4.43;;;4.13;;
61527;SDS011;47395;42.032;-8.634;2023-07-31T06:35:14;5.53;;;4.80;;
61527;SDS011;47395;42.032;-8.634;2023-07-31T06:37:16;5.05;;;4.50;;
61527;SDS011;47395;42.032;-8.634;2023-07-31T06:39:17;5.53;;;4.43;;
61527;SDS011;47395;42.032;-8.634;2023-07-31T06:41:18;7.63;;;4.70;;
61527;SDS011;47395;42.032;-8.634;2023-07-31T06:43:20;4.55;;;4.20;;
61527;SDS011;47395;42.032;-8.634;2023-07-31T06:45:22;6.32;;;4.57;;
61527;SDS011;47395;42.032;-8.634;2023-07-31T06:47:23;5.47;;;4.70;;
61527;SDS011;47395;42.032;-8.634;2023-07-31T06:49:24;6.72;;;4.88;;
61527;SDS011;47395;42.032;-8.634;2023-07-31T06:51:26;5.35;;;4.30;;
61527;SDS011;47395;42.032;-8.634;2023-07-31T06:53:28;5.68;;;4.28;;
61527;SDS011;47395;42.032;-8.634;2023-07-31T06:55:29;4.68;;;3.80;;
61527;SDS011;47395;42.032;-8.634;2023-07-31T06:57:30;4.25;;;3.95;;
61527;SDS011;47395;42.032;-8.634;2023-07-31T06:59:31;4.20;;;3.70;;
61527;SDS011;47395;42.032;-8.634;2023-07-31T07:01:33;6.50;;;4.45;;
61527;SDS011;47395;42.032;-8.634;2023-07-31T07:03:34;11.35;;;4.60;;
61527;SDS011;47395;42.032;-8.634;2023-07-31T07:05:35;9.57;;;4.95;;
61527;SDS011;47395;42.032;-8.634;2023-07-31T07:07:37;4.97;;;4.57;;
61527;SDS011;47395;42.032;-8.634;2023-07-31T07:09:38;7.03;;;4.47;;
61527;SDS011;47395;42.032;-8.634;2023-07-31T07:11:40;5.95;;;5.00;;
61527;SDS011;47395;42.032;-8.634;2023-07-31T07:13:41;5.22;;;4.72;;
61527;SDS011;47395;42.032;-8.634;2023-07-31T07:15:50;5.50;;;4.68;;
61527;SDS011;47395;42.032;-8.634;2023-07-31T07:17:52;6.30;;;4.97;;
61527;SDS011;47395;42.032;-8.634;2023-07-31T07:19:54;5.30;;;4.80;;
61527;SDS011;47395;42.032;-8.634;2023-07-31T07:21:58;5.13;;;4.28;;
61527;SDS011;47395;42.032;-8.634;2023-07-31T07:24:03;5.18;;;4.78;;
61527;SDS011;47395;42.032;-8.634;2023-07-31T07:26:05;6.43;;;4.80;;
61527;SDS011;47395;42.032;-8.634;2023-07-31T07:28:06;7.70;;;4.95;;
61527;SDS011;47395;42.032;-8.634;2023-07-31T07:30:07;6.53;;;4.75;;
61527;SDS011;47395;42.032;-8.634;2023-07-31T07:32:10;4.85;;;4.18;;
61527;SDS011;47395;42.032;-8.634;2023-07-31T07:34:12;4.95;;;4.53;;
61527;SDS011;47395;42.032;-8.634;2023-07-31T07:36:13;6.50;;;4.90;;
61527;SDS011;47395;42.032;-8.634;2023-07-31T07:38:14;7.75;;;4.70;;
61527;SDS011;47395;42.032;-8.634;2023-07-31T07:40:17;8.25;;;4.28;;
61527;SDS011;47395;42.032;-8.634;2023-07-31T07:42:18;5.03;;;4.63;;
61527;SDS011;47395;42.032;-8.634;2023-07-31T07:44:19;6.88;;;4.35;;
61527;SDS011;47395;42.032;-8.634;2023-07-31T07:46:23;6.25;;;4.38;;
61527;SDS011;47395;42.032;-8.634;2023-07-31T07:48:24;6.28;;;4.43;;
61527;SDS011;47395;42.032;-8.634;2023-07-31T07:50:25;5.53;;;5.03;;
61527;SDS011;47395;42.032;-8.634;2023-07-31T07:52:28;7.10;;;4.68;;
61527;SDS011;47395;42.032;-8.634;2023-07-31T07:54:29;7.43;;;3.88;;
61527;SDS011;47395;42.032;-8.634;2023-07-31T07:56:30;4.97;;;3.90;;
61527;SDS011;47395;42.032;-8.634;2023-07-31T07:58:31;6.55;;;4.18;;
61527;SDS011;47395;42.032;-8.634;2023-07-31T08:00:32;8.45;;;4.32;;
61527;SDS011;47395;42.032;-8.634;2023-07-31T08:02:33;6.82;;;4.55;;
61527;SDS011;47395;42.032;-8.634;2023-07-31T08:04:37;5.68;;;3.90;;
61527;SDS011;47395;42.032;-8.634;2023-07-31T08:06:50;7.00;;;4.60;;
61527;SDS011;47395;42.032;-8.634;2023-07-31T08:08:52;4.25;;;3.65;;
61527;SDS011;47395;42.032;-8.634;2023-07-31T08:10:53;4.22;;;3.78;;
61527;SDS011;47395;42.032;-8.634;2023-07-31T08:12:56;7.03;;;4.03;;
61527;SDS011;47395;42.032;-8.634;2023-07-31T08:14:57;4.40;;;4.00;;
61527;SDS011;47395;42.032;-8.634;2023-07-31T08:16:58;10.13;;;4.25;;
61527;SDS011;47395;42.032;-8.634;2023-07-31T08:19:00;9.18;;;4.30;;
61527;SDS011;47395;42.032;-8.634;2023-07-31T08:21:02;7.68;;;3.80;;
61527;SDS011;47395;42.032;-8.634;2023-07-31T08:23:03;6.88;;;3.95;;
61527;SDS011;47395;42.032;-8.634;2023-07-31T08:25:05;8.10;;;4.18;;
61527;SDS011;47395;42.032;-8.634;2023-07-31T08:27:07;5.45;;;4.10;;
61527;SDS011;47395;42.032;-8.634;2023-07-31T08:29:08;7.53;;;4.05;;
61527;SDS011;47395;42.032;-8.634;2023-07-31T08:31:09;3.72;;;3.17;;
61527;SDS011;47395;42.032;-8.634;2023-07-31T08:33:10;4.03;;;3.22;;
61527;SDS011;47395;42.032;-8.634;2023-07-31T08:35:11;3.58;;;3.28;;
61527;SDS011;47395;42.032;-8.634;2023-07-31T08:37:12;6.78;;;3.25;;
61527;SDS011;47395;42.032;-8.634;2023-07-31T08:39:13;7.55;;;3.20;;
61527;SDS011;47395;42.032;-8.634;2023-07-31T08:41:14;4.88;;;3.28;;
61527;SDS011;47395;42.032;-8.634;2023-07-31T08:43:17;7.22;;;3.25;;
61527;SDS011;47395;42.032;-8.634;2023-07-31T08:45:19;4.88;;;3.30;;
61527;SDS011;47395;42.032;-8.634;2023-07-31T08:47:20;4.93;;;2.80;;
61527;SDS011;47395;42.032;-8.634;2023-07-31T08:49:23;4.25;;;2.88;;
61527;SDS011;47395;42.032;-8.634;2023-07-31T08:51:24;5.82;;;3.33;;
61527;SDS011;47395;42.032;-8.634;2023-07-31T08:53:25;5.85;;;3.25;;
61527;SDS011;47395;42.032;-8.634;2023-07-31T08:55:26;5.38;;;3.50;;
61527;SDS011;47395;42.032;-8.634;2023-07-31T08:57:28;4.85;;;3.20;;
61527;SDS011;47395;42.032;-8.634;2023-07-31T08:59:30;8.25;;;3.10;;
61527;SDS011;47395;42.032;-8.634;2023-07-31T09:01:33;4.28;;;2.78;;
61527;SDS011;47395;42.032;-8.634;2023-07-31T09:03:42;5.55;;;2.85;;
61527;SDS011;47395;42.032;-8.634;2023-07-31T09:05:45;6.15;;;3.25;;
61527;SDS011;47395;42.032;-8.634;2023-07-31T09:07:47;7.60;;;3.22;;
61527;SDS011;47395;42.032;-8.634;2023-07-31T09:09:50;4.25;;;2.95;;
61527;SDS011;47395;42.032;-8.634;2023-07-31T09:11:52;7.78;;;3.60;;
61527;SDS011;47395;42.032;-8.634;2023-07-31T09:13:53;5.57;;;3.17;;
61527;SDS011;47395;42.032;-8.634;2023-07-31T09:15:58;5.57;;;2.67;;
61527;SDS011;47395;42.032;-8.634;2023-07-31T09:17:59;5.63;;;2.80;;
61527;SDS011;47395;42.032;-8.634;2023-07-31T09:20:17;2.90;;;2.60;;
61527;SDS011;47395;42.032;-8.634;2023-07-31T09:22:34;5.72;;;3.28;;
61527;SDS011;47395;42.032;-8.634;2023-07-31T09:24:36;6.65;;;2.83;;
61527;SDS011;47395;42.032;-8.634;2023-07-31T09:26:37;8.95;;;2.83;;
61527;SDS011;47395;42.032;-8.634;2023-07-31T09:28:38;10.32;;;3.08;;
61527;SDS011;47395;42.032;-8.634;2023-07-31T09:30:46;5.55;;;2.70;;
61527;SDS011;47395;42.032;-8.634;2023-07-31T09:32:51;4.07;;;3.00;;
61527;SDS011;47395;42.032;-8.634;2023-07-31T09:37:23;5.68;;;2.55;;
61527;SDS011;47395;42.032;-8.634;2023-07-31T09:39:24;6.05;;;2.78;;
61527;SDS011;47395;42.032;-8.634;2023-07-31T09:41:25;3.95;;;3.03;;
61527;SDS011;47395;42.032;-8.634;2023-07-31T09:43:26;11.00;;;2.58;;
61527;SDS011;47395;42.032;-8.634;2023-07-31T09:45:28;4.93;;;2.67;;
61527;SDS011;47395;42.032;-8.634;2023-07-31T09:47:30;8.23;;;2.78;;
61527;SDS011;47395;42.032;-8.634;2023-07-31T09:49:31;2.53;;;2.20;;
61527;SDS011;47395;42.032;-8.634;2023-07-31T09:51:31;6.35;;;2.70;;
61527;SDS011;47395;42.032;-8.634;2023-07-31T09:53:39;4.03;;;2.50;;
61527;SDS011;47395;42.032;-8.634;2023-07-31T09:55:40;2.75;;;2.50;;
61527;SDS011;47395;42.032;-8.634;2023-07-31T09:57:47;5.65;;;2.90;;
61527;SDS011;47395;42.032;-8.634;2023-07-31T09:59:49;6.35;;;3.00;;
61527;SDS011;47395;42.032;-8.634;2023-07-31T10:01:53;4.85;;;2.83;;
61527;SDS011;47395;42.032;-8.634;2023-07-31T10:03:56;5.68;;;2.70;;
61527;SDS011;47395;42.032;-8.634;2023-07-31T10:05:58;6.72;;;2.50;;
61527;SDS011;47395;42.032;-8.634;2023-07-31T10:08:02;3.67;;;2.50;;
61527;SDS011;47395;42.032;-8.634;2023-07-31T10:10:04;6.43;;;2.90;;
61527;SDS011;47395;42.032;-8.634;2023-07-31T10:12:07;3.13;;;2.80;;
61527;SDS011;47395;42.032;-8.634;2023-07-31T10:14:11;3.80;;;2.65;;
61527;SDS011;47395;42.032;-8.634;2023-07-31T10:16:14;3.42;;;3.13;;
61527;SDS011;47395;42.032;-8.634;2023-07-31T10:18:18;5.25;;;2.53;;
61527;SDS011;47395;42.032;-8.634;2023-07-31T10:20:21;4.20;;;2.65;;
61527;SDS011;47395;42.032;-8.634;2023-07-31T10:22:23;6.95;;;2.78;;
61527;SDS011;47395;42.032;-8.634;2023-07-31T10:24:27;2.70;;;2.50;;
61527;SDS011;47395;42.032;-8.634;2023-07-31T10:26:29;5.18;;;2.72;;
61527;SDS011;47395;42.032;-8.634;2023-07-31T10:28:32;3.80;;;2.80;;
61527;SDS011;47395;42.032;-8.634;2023-07-31T10:30:35;4.18;;;2.72;;
61527;SDS011;47395;42.032;-8.634;2023-07-31T10:32:41;5.20;;;2.80;;
61527;SDS011;47395;42.032;-8.634;2023-07-31T10:34:47;3.65;;;2.42;;
61527;SDS011;47395;42.032;-8.634;2023-07-31T10:36:48;3.28;;;2.38;;
61527;SDS011;47395;42.032;-8.634;2023-07-31T10:38:49;4.07;;;2.55;;
61527;SDS011;47395;42.032;-8.634;2023-07-31T10:40:53;2.88;;;2.35;;
61527;SDS011;47395;42.032;-8.634;2023-07-31T10:43:09;3.35;;;2.30;;
61527;SDS011;47395;42.032;-8.634;2023-07-31T10:45:36;3.35;;;2.15;;
61527;SDS011;47395;42.032;-8.634;2023-07-31T10:47:43;2.20;;;2.10;;
61527;SDS011;47395;42.032;-8.634;2023-07-31T10:49:47;4.45;;;2.33;;
61527;SDS011;47395;42.032;-8.634;2023-07-31T10:51:49;2.88;;;2.10;;
61527;SDS011;47395;42.032;-8.634;2023-07-31T10:53:50;2.53;;;2.33;;
61527;SDS011;47395;42.032;-8.634;2023-07-31T10:56:11;2.47;;;2.13;;
61527;SDS011;47395;42.032;-8.634;2023-07-31T10:58:14;4.25;;;2.08;;
61527;SDS011;47395;42.032;-8.634;2023-07-31T11:02:29;5.00;;;2.35;;
61527;SDS011;47395;42.032;-8.634;2023-07-31T11:04:34;2.92;;;2.60;;
61527;SDS011;47395;42.032;-8.634;2023-07-31T11:06:34;2.35;;;2.15;;
61527;SDS011;47395;42.032;-8.634;2023-07-31T11:08:43;4.82;;;2.42;;
61527;SDS011;47395;42.032;-8.634;2023-07-31T11:10:47;3.80;;;2.60;;
61527;SDS011;47395;42.032;-8.634;2023-07-31T11:12:50;2.65;;;1.85;;
61527;SDS011;47395;42.032;-8.634;2023-07-31T11:14:57;2.38;;;1.90;;
61527;SDS011;47395;42.032;-8.634;2023-07-31T11:16:59;2.67;;;2.10;;
61527;SDS011;47395;42.032;-8.634;2023-07-31T11:19:00;3.17;;;1.80;;
61527;SDS011;47395;42.032;-8.634;2023-07-31T11:21:01;8.00;;;1.80;;
61527;SDS011;47395;42.032;-8.634;2023-07-31T11:23:02;2.78;;;1.65;;
61527;SDS011;47395;42.032;-8.634;2023-07-31T11:25:04;1.85;;;1.75;;
61527;SDS011;47395;42.032;-8.634;2023-07-31T11:27:07;1.80;;;1.70;;
61527;SDS011;47395;42.032;-8.634;2023-07-31T11:29:11;2.70;;;2.28;;
61527;SDS011;47395;42.032;-8.634;2023-07-31T11:31:13;2.15;;;1.95;;
61527;SDS011;47395;42.032;-8.634;2023-07-31T11:33:14;3.13;;;2.38;;
61527;SDS011;47395;42.032;-8.634;2023-07-31T11:35:16;7.03;;;2.05;;
61527;SDS011;47395;42.032;-8.634;2023-07-31T11:37:17;2.55;;;1.88;;
61527;SDS011;47395;42.032;-8.634;2023-07-31T11:39:19;1.70;;;1.50;;
61527;SDS011;47395;42.032;-8.634;2023-07-31T11:41:20;2.15;;;1.92;;
61527;SDS011;47395;42.032;-8.634;2023-07-31T11:43:22;2.13;;;1.40;;
61527;SDS011;47395;42.032;-8.634;2023-07-31T11:45:26;1.40;;;1.30;;
61527;SDS011;47395;42.032;-8.634;2023-07-31T11:47:28;1.60;;;1.50;;
61527;SDS011;47395;42.032;-8.634;2023-07-31T11:49:36;2.23;;;1.60;;
61527;SDS011;47395;42.032;-8.634;2023-07-31T11:51:37;2.15;;;1.30;;
61527;SDS011;47395;42.032;-8.634;2023-07-31T11:53:42;1.70;;;1.60;;
61527;SDS011;47395;42.032;-8.634;2023-07-31T11:55:50;1.70;;;1.60;;
61527;SDS011;47395;42.032;-8.634;2023-07-31T11:57:52;1.73;;;1.42;;
61527;SDS011;47395;42.032;-8.634;2023-07-31T11:59:54;1.48;;;1.38;;
61527;SDS011;47395;42.032;-8.634;2023-07-31T12:01:57;1.58;;;1.48;;
61527;SDS011;47395;42.032;-8.634;2023-07-31T12:03:58;1.60;;;1.50;;
61527;SDS011;47395;42.032;-8.634;2023-07-31T12:05:59;1.70;;;1.50;;
61527;SDS011;47395;42.032;-8.634;2023-07-31T12:08:02;1.85;;;1.60;;
61527;SDS011;47395;42.032;-8.634;2023-07-31T12:10:11;1.40;;;1.30;;
61527;SDS011;47395;42.032;-8.634;2023-07-31T12:12:12;1.65;;;1.50;;
61527;SDS011;47395;42.032;-8.634;2023-07-31T12:14:21;3.53;;;1.45;;
61527;SDS011;47395;42.032;-8.634;2023-07-31T12:16:25;2.03;;;1.35;;
61527;SDS011;47395;42.032;-8.634;2023-07-31T12:18:30;1.70;;;1.60;;
61527;SDS011;47395;42.032;-8.634;2023-07-31T12:20:34;1.63;;;1.52;;
61527;SDS011;47395;42.032;-8.634;2023-07-31T12:22:36;4.63;;;1.50;;